Terminal Aerodrome Forecast
Issued by NWS Portland, OR

Home | Current Version | Previous Version | Text Only | Print | Product List | Glossary On
Versions: 1 2 3 4 5 6 7 8 9 10 11 12 13 14 15
000
FTUS46 KPQR 270520
TAFSLE
TAF
KSLE 270520Z 2706/2806 33005KT P6SM SKC
     FM271000 32004KT P6SM SCT015
     FM271700 36007KT P6SM FEW015
     FM272000 35010KT P6SM SCT050
     FM280300 35007KT P6SM SCT100=

USA.gov is the U.S. government's official web portal to all federal, state and local government web resources and services.